Time;durP1;ratioP1;P1;durP2;ratioP2;P2;SDS_P1;SDS_P2;PMS_P1;PMS_P2;Temp;Humidity;BMP_temperature;BMP_pressure;BME280_temperature;BME280_humidity;BME280_pressure;Samples;Min_cycle;Max_cycle;Signal;HPM_P1;HPM_P2
2023/05/10 00:01:23;;;;;;;12.77;10.40;;;24.60;51.40;;;;;;4977313;28;20470;-79
2023/05/10 00:03:51;;;;;;;12.73;10.23;;;24.70;51.40;;;;;;4979950;28;20655;-78
2023/05/10 00:06:20;;;;;;;11.77;10.43;;;24.70;51.40;;;;;;4980093;28;20438;-78
2023/05/10 00:08:48;;;;;;;12.50;10.13;;;24.60;51.40;;;;;;4978404;28;20445;-79
2023/05/10 00:11:15;;;;;;;11.93;10.10;;;24.60;51.50;;;;;;4980162;28;20540;-79
2023/05/10 00:13:45;;;;;;;10.70;9.60;;;24.60;51.50;;;;;;4980475;28;20440;-79
2023/05/10 00:16:13;;;;;;;12.47;9.83;;;24.70;51.60;;;;;;4980508;28;20429;-79
2023/05/10 00:18:41;;;;;;;11.27;10.07;;;24.60;51.40;;;;;;4979685;28;20470;-79
2023/05/10 00:21:09;;;;;;;11.53;10.33;;;24.60;51.50;;;;;;4980311;28;20446;-80
2023/05/10 00:23:37;;;;;;;12.30;10.53;;;24.60;51.60;;;;;;4972138;28;20470;-79
2023/05/10 00:26:06;;;;;;;11.03;9.80;;;24.60;51.60;;;;;;4980423;28;20446;-79
2023/05/10 00:28:33;;;;;;;11.10;10.00;;;24.60;51.60;;;;;;4980166;28;20430;-79
2023/05/10 00:31:03;;;;;;;9.37;8.47;;;24.60;51.60;;;;;;4979745;28;20465;-79
2023/05/10 00:33:31;;;;;;;10.50;9.40;;;24.60;51.60;;;;;;4980496;28;20468;-79
2023/05/10 00:36:00;;;;;;;13.63;9.60;;;24.60;51.60;;;;;;4979674;28;20457;-79
2023/05/10 00:38:28;;;;;;;10.13;9.13;;;24.60;51.70;;;;;;4979592;28;20474;-79
2023/05/10 00:40:56;;;;;;;10.90;9.50;;;24.60;51.70;;;;;;4980155;28;20424;-79
2023/05/10 00:43:24;;;;;;;11.80;9.83;;;24.60;51.70;;;;;;4977672;28;20477;-79
2023/05/10 00:45:52;;;;;;;10.40;8.60;;;24.60;51.70;;;;;;4974276;28;20450;-79
2023/05/10 00:48:22;;;;;;;10.60;9.30;;;24.60;51.80;;;;;;4979979;28;20450;-79
2023/05/10 00:50:49;;;;;;;13.60;9.60;;;24.50;51.70;;;;;;4979531;28;20473;-79
2023/05/10 00:53:17;;;;;;;11.57;8.83;;;24.60;51.90;;;;;;4978939;28;20470;-79
2023/05/10 00:55:45;;;;;;;14.93;9.40;;;24.60;51.80;;;;;;4973093;28;20453;-79
2023/05/10 00:58:13;;;;;;;12.20;9.17;;;24.60;51.80;;;;;;4979560;28;20461;-79
2023/05/10 01:00:43;;;;;;;9.63;8.57;;;24.50;51.70;;;;;;4974455;28;20454;-79
2023/05/10 01:03:11;;;;;;;9.83;8.83;;;24.50;51.80;;;;;;4979719;28;20478;-79
2023/05/10 01:05:40;;;;;;;8.73;7.90;;;24.50;51.80;;;;;;4969805;28;20446;-79
2023/05/10 01:08:09;;;;;;;9.10;8.20;;;24.50;51.80;;;;;;4979655;28;20449;-79
2023/05/10 01:10:37;;;;;;;10.73;8.87;;;24.50;51.70;;;;;;4971592;28;20465;-79
2023/05/10 01:13:05;;;;;;;9.73;8.70;;;24.50;51.90;;;;;;4978689;28;20468;-79
2023/05/10 01:15:33;;;;;;;10.37;8.10;;;24.50;51.90;;;;;;4971327;28;20516;-79
2023/05/10 01:18:01;;;;;;;9.17;8.30;;;24.50;51.90;;;;;;4978874;28;20457;-79
2023/05/10 01:20:31;;;;;;;9.33;8.43;;;24.40;51.80;;;;;;4978583;28;20543;-79
2023/05/10 01:23:28;;;;;;;8.70;7.80;;;24.40;51.90;;;;;;4978716;28;20458;-79
2023/05/10 01:26:08;;;;;;;9.20;8.30;;;24.40;51.80;;;;;;4971982;28;20438;-79
2023/05/10 01:28:45;;;;;;;9.77;8.77;;;24.40;51.90;;;;;;4966080;28;20432;-80
2023/05/10 01:31:34;;;;;;;9.33;8.17;;;24.40;51.90;;;;;;4976584;28;20450;-79
2023/05/10 01:34:07;;;;;;;8.27;7.33;;;24.40;52.00;;;;;;4978053;28;20923;-79
2023/05/10 01:36:39;;;;;;;8.87;7.97;;;24.40;52.00;;;;;;4970330;28;20454;-80
2023/05/10 01:39:12;;;;;;;8.23;7.43;;;24.40;52.10;;;;;;4978667;28;20480;-79
2023/05/10 01:41:43;;;;;;;9.03;7.87;;;24.30;52.00;;;;;;4970510;28;20446;-79
2023/05/10 01:44:15;;;;;;;8.33;7.47;;;24.40;52.10;;;;;;4969593;28;20457;-77
2023/05/10 01:46:43;;;;;;;8.20;7.33;;;24.40;52.00;;;;;;4974318;28;20442;-78
2023/05/10 01:49:18;;;;;;;9.90;8.57;;;24.40;52.00;;;;;;4975906;28;20533;-78
2023/05/10 01:51:48;;;;;;;8.23;7.40;;;24.30;52.10;;;;;;4973571;28;20445;-78
2023/05/10 01:54:15;;;;;;;8.40;7.10;;;24.40;52.20;;;;;;4969417;28;20447;-78
2023/05/10 01:56:43;;;;;;;8.83;8.03;;;24.30;52.00;;;;;;4976471;28;20429;-79
2023/05/10 01:59:13;;;;;;;8.10;7.33;;;24.30;52.20;;;;;;4976785;28;20474;-78
2023/05/10 02:01:41;;;;;;;7.93;7.13;;;24.30;52.20;;;;;;4972992;28;20446;-78
2023/05/10 02:04:10;;;;;;;8.10;7.40;;;24.30;52.20;;;;;;4976970;28;20454;-78
2023/05/10 02:06:39;;;;;;;8.07;7.27;;;24.30;52.10;;;;;;4976342;28;20428;-78
2023/05/10 02:09:07;;;;;;;8.40;7.60;;;24.30;52.10;;;;;;4978056;28;20456;-79
2023/05/10 02:11:35;;;;;;;8.40;6.83;;;24.30;52.00;;;;;;4978207;28;20425;-79
2023/05/10 02:14:03;;;;;;;9.63;6.90;;;24.30;52.00;;;;;;4978281;28;20420;-79
2023/05/10 02:16:31;;;;;;;9.33;7.37;;;24.30;52.20;;;;;;4980419;28;20553;-79
2023/05/10 02:18:59;;;;;;;7.30;6.70;;;24.30;52.30;;;;;;4974198;28;20545;-78
2023/05/10 02:21:28;;;;;;;10.40;7.27;;;24.30;52.10;;;;;;4976805;28;20454;-79
2023/05/10 02:23:57;;;;;;;8.73;7.80;;;24.20;52.20;;;;;;4976130;28;20474;-78
2023/05/10 02:26:26;;;;;;;7.37;6.70;;;24.30;52.30;;;;;;4971820;28;20416;-78
2023/05/10 02:28:54;;;;;;;7.87;7.17;;;24.20;52.20;;;;;;4966504;28;20462;-78
2023/05/10 02:31:22;;;;;;;7.10;6.50;;;24.20;52.30;;;;;;4976545;28;20469;-78
2023/05/10 02:33:50;;;;;;;7.23;6.53;;;24.30;52.40;;;;;;4971622;28;20859;-77
2023/05/10 02:36:18;;;;;;;6.97;6.33;;;24.30;52.40;;;;;;4973547;28;20421;-78
2023/05/10 02:38:46;;;;;;;6.80;6.20;;;24.30;52.20;;;;;;4975982;28;20434;-78
2023/05/10 02:41:16;;;;;;;7.27;6.57;;;24.20;52.40;;;;;;4967938;28;20478;-78
2023/05/10 02:43:44;;;;;;;6.77;6.17;;;24.20;52.20;;;;;;4975660;28;20456;-78
2023/05/10 02:46:12;;;;;;;8.37;6.50;;;24.20;52.30;;;;;;4976112;28;20427;-78
2023/05/10 02:48:41;;;;;;;6.80;6.10;;;24.30;52.30;;;;;;4964366;28;20443;-78
2023/05/10 02:51:09;;;;;;;7.03;6.43;;;24.20;52.20;;;;;;4973888;28;20442;-78
2023/05/10 02:53:37;;;;;;;7.23;6.53;;;24.20;52.20;;;;;;4967453;28;20489;-78
2023/05/10 02:56:09;;;;;;;8.30;6.10;;;24.20;52.50;;;;;;4975824;28;20452;-78
2023/05/10 02:58:38;;;;;;;6.97;6.27;;;24.20;52.40;;;;;;4976128;28;20450;-78
2023/05/10 03:01:07;;;;;;;6.90;6.30;;;24.20;52.30;;;;;;4974882;28;20474;-78
2023/05/10 03:03:35;;;;;;;6.43;5.87;;;24.20;52.30;;;;;;4975635;28;20453;-78
2023/05/10 03:06:04;;;;;;;6.30;5.77;;;24.20;52.30;;;;;;4975836;28;20451;-79
2023/05/10 03:08:32;;;;;;;6.23;5.73;;;24.20;52.80;;;;;;4977239;28;20425;-79
2023/05/10 03:11:16;;;;;;;6.70;6.00;;;24.20;52.30;;;;;;4976809;28;20424;-79
2023/05/10 03:13:50;;;;;;;6.60;6.00;;;24.20;52.40;;;;;;4970474;28;20477;-79
2023/05/10 03:16:22;;;;;;;7.60;6.90;;;24.20;52.50;;;;;;4974407;28;20473;-79
2023/05/10 03:18:55;;;;;;;6.37;5.77;;;24.20;52.30;;;;;;4969116;28;20442;-79
2023/05/10 03:21:23;;;;;;;7.00;6.30;;;24.20;52.30;;;;;;4976373;28;20481;-79
2023/05/10 03:23:52;;;;;;;6.80;6.17;;;24.20;52.60;;;;;;4971725;28;20449;-79
2023/05/10 03:26:22;;;;;;;5.40;4.90;;;24.10;52.40;;;;;;4974096;28;20431;-79
2023/05/10 03:28:52;;;;;;;7.77;6.13;;;24.20;52.40;;;;;;4976550;28;20421;-79
2023/05/10 03:31:20;;;;;;;6.07;5.57;;;24.10;52.30;;;;;;4975870;28;20509;-79
2023/05/10 03:33:49;;;;;;;6.87;5.40;;;24.10;52.60;;;;;;4976616;28;20485;-79
2023/05/10 03:36:17;;;;;;;6.67;5.80;;;24.10;52.40;;;;;;4973230;28;20438;-79
2023/05/10 03:38:45;;;;;;;6.17;5.67;;;24.10;52.60;;;;;;4976932;28;20421;-79
2023/05/10 03:41:13;;;;;;;7.10;5.30;;;24.10;52.40;;;;;;4976718;28;20469;-79
2023/05/10 03:43:42;;;;;;;5.77;5.27;;;24.10;52.50;;;;;;4975431;28;20860;-79
2023/05/10 03:46:11;;;;;;;5.97;5.47;;;24.10;52.60;;;;;;4976393;28;20446;-79
2023/05/10 03:48:39;;;;;;;5.33;4.93;;;24.10;52.50;;;;;;4968497;28;20419;-79
2023/05/10 03:51:07;;;;;;;6.57;5.97;;;24.10;52.30;;;;;;4976353;28;20443;-79
2023/05/10 03:53:35;;;;;;;5.80;5.30;;;24.10;52.60;;;;;;4975110;28;20496;-78
2023/05/10 03:56:03;;;;;;;6.30;5.80;;;24.10;52.60;;;;;;4975151;28;20465;-78
2023/05/10 03:58:31;;;;;;;6.33;5.77;;;24.10;52.60;;;;;;4974665;28;20448;-79
2023/05/10 04:00:59;;;;;;;5.90;5.40;;;24.10;52.50;;;;;;4970012;28;20478;-79
2023/05/10 04:03:28;;;;;;;5.77;5.27;;;24.10;52.60;;;;;;4974220;28;20481;-78
2023/05/10 04:06:01;;;;;;;5.93;5.43;;;24.10;52.60;;;;;;4973974;28;20450;-78
2023/05/10 04:08:29;;;;;;;5.57;5.07;;;24.10;52.60;;;;;;4973943;28;20454;-78
2023/05/10 04:11:06;;;;;;;5.90;5.40;;;24.10;52.60;;;;;;4974399;28;20425;-78
2023/05/10 04:13:34;;;;;;;5.50;5.03;;;24.00;52.50;;;;;;4974207;28;20437;-78
2023/05/10 04:16:02;;;;;;;5.50;5.00;;;24.00;52.60;;;;;;4974888;28;20448;-78
2023/05/10 04:18:32;;;;;;;5.47;4.97;;;24.00;52.70;;;;;;4974291;28;20419;-78
2023/05/10 04:21:00;;;;;;;5.40;5.00;;;24.00;52.70;;;;;;4974680;28;20480;-78
2023/05/10 04:23:27;;;;;;;5.40;5.00;;;24.00;52.80;;;;;;4971217;28;20458;-78
2023/05/10 04:26:00;;;;;;;5.93;5.40;;;24.00;52.60;;;;;;4974282;28;20486;-79
2023/05/10 04:28:29;;;;;;;5.37;4.93;;;24.00;52.80;;;;;;4975079;28;20542;-79
2023/05/10 04:31:02;;;;;;;5.77;4.77;;;24.00;52.60;;;;;;4974650;28;20529;-79
2023/05/10 04:33:31;;;;;;;5.60;5.03;;;24.00;52.80;;;;;;4974603;28;20454;-78
2023/05/10 04:35:59;;;;;;;5.10;4.70;;;24.00;52.70;;;;;;4975129;28;20453;-79
2023/05/10 04:38:28;;;;;;;5.83;5.43;;;23.90;52.70;;;;;;4974206;28;20413;-78
2023/05/10 04:41:04;;;;;;;5.63;5.03;;;23.90;52.90;;;;;;4974525;28;20476;-78
2023/05/10 04:43:33;;;;;;;5.57;5.17;;;24.00;52.80;;;;;;4974166;28;20456;-78
2023/05/10 04:46:01;;;;;;;5.03;4.63;;;23.90;52.70;;;;;;4974571;28;20449;-78
2023/05/10 04:48:29;;;;;;;6.43;5.03;;;23.90;52.90;;;;;;4974712;28;20421;-78
2023/05/10 04:50:59;;;;;;;5.73;5.10;;;23.90;52.80;;;;;;4977852;28;20442;-78
2023/05/10 04:53:27;;;;;;;5.43;4.93;;;23.90;52.80;;;;;;4977695;28;20473;-77
2023/05/10 04:55:55;;;;;;;5.23;4.83;;;23.90;52.80;;;;;;4977771;28;20452;-77
2023/05/10 04:58:23;;;;;;;5.30;4.90;;;23.90;52.90;;;;;;4977523;28;20441;-78
2023/05/10 05:00:51;;;;;;;5.40;4.90;;;23.90;52.80;;;;;;4978187;28;20452;-78
2023/05/10 05:03:19;;;;;;;4.80;4.50;;;23.90;52.90;;;;;;4973753;28;20445;-78
2023/05/10 05:05:47;;;;;;;5.10;4.57;;;23.90;52.90;;;;;;4970508;28;20457;-78
2023/05/10 05:08:16;;;;;;;5.00;4.60;;;23.90;52.90;;;;;;4979246;28;20442;-78
2023/05/10 05:10:45;;;;;;;5.07;4.60;;;23.90;52.90;;;;;;4970385;28;20450;-78
2023/05/10 05:13:13;;;;;;;4.93;4.53;;;23.80;52.90;;;;;;4976757;28;20456;-77
2023/05/10 05:15:41;;;;;;;4.83;4.40;;;23.90;52.90;;;;;;4976457;28;20456;-77
2023/05/10 05:18:10;;;;;;;5.30;4.80;;;23.80;52.90;;;;;;4976541;28;20421;-77
2023/05/10 05:20:38;;;;;;;5.40;4.20;;;23.80;53.00;;;;;;4978662;28;20446;-79
2023/05/10 05:23:06;;;;;;;5.00;4.60;;;23.80;53.00;;;;;;4981637;28;20481;-79
2023/05/10 05:25:36;;;;;;;4.43;4.07;;;23.90;52.90;;;;;;4979389;28;20450;-78
2023/05/10 05:28:04;;;;;;;4.87;4.47;;;23.80;52.90;;;;;;4980401;28;20450;-79
2023/05/10 05:30:32;;;;;;;5.13;4.73;;;23.90;53.00;;;;;;4972460;28;20544;-79
2023/05/10 05:33:00;;;;;;;4.47;4.17;;;23.80;53.60;;;;;;4980369;28;20443;-79
2023/05/10 05:35:28;;;;;;;4.90;4.50;;;23.80;53.00;;;;;;4975134;28;20460;-77
2023/05/10 05:37:57;;;;;;;4.00;3.70;;;23.80;53.00;;;;;;4972941;28;20465;-78
2023/05/10 05:40:25;;;;;;;4.10;3.80;;;23.80;52.90;;;;;;4964324;28;20458;-78
2023/05/10 05:42:55;;;;;;;5.03;4.60;;;23.90;53.00;;;;;;4971999;28;20481;-78
2023/05/10 05:45:23;;;;;;;4.20;3.90;;;23.80;53.00;;;;;;4975402;28;20431;-78
2023/05/10 05:47:51;;;;;;;4.10;3.80;;;23.80;53.00;;;;;;4970538;28;20453;-78
2023/05/10 05:50:19;;;;;;;4.63;4.23;;;23.90;53.00;;;;;;4977370;28;20446;-78
2023/05/10 05:52:48;;;;;;;4.60;4.30;;;23.80;52.90;;;;;;4970667;28;20475;-78
2023/05/10 05:55:16;;;;;;;4.13;3.93;;;23.80;52.90;;;;;;4976202;28;20425;-78
2023/05/10 05:57:44;;;;;;;4.43;4.13;;;23.90;53.00;;;;;;4966354;28;20447;-78
2023/05/10 06:00:15;;;;;;;4.87;4.37;;;23.90;52.90;;;;;;4970473;28;20454;-79
2023/05/10 06:02:43;;;;;;;4.43;4.17;;;23.90;52.80;;;;;;4970306;28;20453;-81
2023/05/10 06:05:11;;;;;;;4.33;4.03;;;23.90;53.00;;;;;;4975654;28;20450;-78
2023/05/10 06:07:40;;;;;;;4.73;4.33;;;23.90;52.90;;;;;;4967090;28;20420;-78
2023/05/10 06:10:08;;;;;;;3.80;3.50;;;23.90;52.80;;;;;;4972686;28;20451;-78
2023/05/10 06:12:36;;;;;;;4.23;3.93;;;23.90;52.90;;;;;;4976407;28;20440;-78
2023/05/10 06:15:05;;;;;;;4.13;3.83;;;23.90;52.80;;;;;;4976055;28;20450;-78
2023/05/10 06:17:34;;;;;;;4.00;3.70;;;23.90;52.90;;;;;;4969041;28;20434;-78
2023/05/10 06:20:02;;;;;;;4.30;3.93;;;24.00;52.80;;;;;;4973715;28;20522;-77
2023/05/10 06:22:31;;;;;;;3.70;3.40;;;23.90;52.70;;;;;;4965115;28;20500;-79
2023/05/10 06:24:59;;;;;;;4.07;3.87;;;23.90;52.80;;;;;;4976436;28;20452;-80
2023/05/10 06:27:27;;;;;;;4.10;3.80;;;24.00;52.80;;;;;;4982300;28;20450;-80
2023/05/10 06:29:55;;;;;;;4.07;3.77;;;24.00;52.80;;;;;;4980810;28;20919;-80
2023/05/10 06:32:37;;;;;;;3.67;3.47;;;24.00;52.80;;;;;;4974186;28;20465;-80
2023/05/10 06:35:06;;;;;;;3.73;3.53;;;24.10;52.80;;;;;;4976948;28;20450;-80
2023/05/10 06:37:34;;;;;;;7.03;4.20;;;24.10;52.80;;;;;;4986915;28;20424;-80
2023/05/10 06:40:03;;;;;;;4.23;3.67;;;24.10;52.60;;;;;;4981330;28;20426;-80
2023/05/10 06:42:31;;;;;;;3.70;3.50;;;24.20;52.70;;;;;;4978146;28;20444;-80
2023/05/10 06:44:59;;;;;;;3.50;3.20;;;24.20;52.70;;;;;;4976962;28;20514;-80
2023/05/10 06:47:28;;;;;;;4.37;3.97;;;24.20;52.40;;;;;;4982756;28;20474;-80
2023/05/10 06:49:57;;;;;;;3.67;3.47;;;24.30;52.60;;;;;;4978935;28;20484;-80
2023/05/10 06:52:25;;;;;;;3.60;3.40;;;24.30;52.50;;;;;;4984233;28;20419;-80
2023/05/10 06:54:53;;;;;;;4.13;3.73;;;24.30;52.50;;;;;;4986199;28;20454;-79
2023/05/10 06:57:22;;;;;;;4.23;3.80;;;24.30;52.30;;;;;;4987382;28;20455;-79
2023/05/10 06:59:58;;;;;;;4.27;3.97;;;24.30;52.40;;;;;;4981324;28;20477;-80
2023/05/10 07:02:27;;;;;;;3.70;3.40;;;24.40;52.40;;;;;;4980016;28;20484;-78
2023/05/10 07:04:55;;;;;;;4.00;3.70;;;24.40;52.30;;;;;;4982610;28;20477;-81
2023/05/10 07:07:27;;;;;;;3.90;3.60;;;24.30;52.30;;;;;;4981919;28;20432;-79
2023/05/10 07:09:56;;;;;;;5.40;3.33;;;24.30;52.20;;;;;;4980833;28;20451;-78
2023/05/10 07:12:24;;;;;;;3.63;3.33;;;24.30;52.20;;;;;;4979081;28;20466;-81
2023/05/10 07:14:52;;;;;;;3.37;3.17;;;24.30;52.20;;;;;;4979476;28;20458;-79
2023/05/10 07:17:20;;;;;;;3.70;3.50;;;24.30;52.20;;;;;;4977347;28;20521;-79
2023/05/10 07:19:48;;;;;;;3.97;3.53;;;24.30;52.20;;;;;;4967863;28;20451;-79
2023/05/10 07:22:17;;;;;;;3.37;3.17;;;24.30;52.20;;;;;;4978751;28;20453;-79
2023/05/10 07:24:46;;;;;;;3.37;3.17;;;24.20;52.10;;;;;;4964043;28;20525;-79
2023/05/10 07:27:14;;;;;;;3.90;3.60;;;24.20;52.20;;;;;;4969622;28;20482;-79
2023/05/10 07:29:42;;;;;;;3.40;3.20;;;24.20;52.30;;;;;;4970849;28;20895;-79
2023/05/10 07:32:10;;;;;;;3.50;3.30;;;24.30;52.30;;;;;;4976845;28;20457;-79
2023/05/10 07:34:39;;;;;;;6.83;3.20;;;24.30;52.10;;;;;;4973761;28;20444;-79
2023/05/10 07:37:07;;;;;;;4.00;3.70;;;24.30;52.00;;;;;;4974345;28;20450;-78
2023/05/10 07:39:35;;;;;;;3.57;3.37;;;24.30;51.90;;;;;;4968948;28;20476;-78
2023/05/10 07:42:05;;;;;;;4.20;3.90;;;24.30;51.90;;;;;;4968875;28;20474;-79
2023/05/10 07:44:33;;;;;;;3.57;3.40;;;24.30;51.90;;;;;;4980250;28;20450;-79
2023/05/10 07:47:01;;;;;;;4.27;3.97;;;24.30;52.00;;;;;;4977607;28;20506;-78
2023/05/10 07:49:29;;;;;;;3.67;3.43;;;24.30;52.00;;;;;;4977778;28;20455;-79
2023/05/10 07:51:58;;;;;;;3.50;3.30;;;24.30;52.00;;;;;;4976983;28;20454;-78
2023/05/10 07:54:26;;;;;;;4.77;3.60;;;24.40;52.00;;;;;;4976936;28;20566;-78
2023/05/10 07:56:54;;;;;;;3.33;3.13;;;24.40;52.00;;;;;;4977871;28;20416;-78
2023/05/10 07:59:27;;;;;;;5.27;3.30;;;24.40;52.00;;;;;;4976804;28;20450;-78
2023/05/10 08:01:56;;;;;;;3.00;2.90;;;24.40;51.90;;;;;;4964008;28;20513;-78
2023/05/10 08:04:24;;;;;;;3.40;3.10;;;24.30;51.70;;;;;;4971211;28;20474;-78
2023/05/10 08:06:52;;;;;;;5.10;3.50;;;24.30;52.00;;;;;;4973309;28;20433;-78
2023/05/10 08:09:23;;;;;;;3.50;3.03;;;24.30;52.00;;;;;;4968943;28;20454;-79
2023/05/10 08:11:51;;;;;;;3.17;2.97;;;24.30;52.10;;;;;;4970982;28;20458;-79
2023/05/10 08:14:20;;;;;;;3.47;3.27;;;24.30;51.90;;;;;;4958759;28;21006;-79
2023/05/10 08:16:50;;;;;;;3.57;3.30;;;24.30;52.00;;;;;;4970368;28;20506;-78
2023/05/10 08:19:19;;;;;;;3.50;3.30;;;24.40;52.10;;;;;;4976917;28;20454;-79
2023/05/10 08:21:47;;;;;;;3.07;2.90;;;24.40;52.00;;;;;;4964881;28;20454;-78
2023/05/10 08:24:15;;;;;;;3.73;3.53;;;24.40;51.90;;;;;;4980928;28;20969;-78
2023/05/10 08:26:44;;;;;;;3.40;3.17;;;24.50;51.90;;;;;;4972355;28;20458;-78
2023/05/10 08:29:12;;;;;;;3.50;3.20;;;24.50;51.70;;;;;;4964185;28;20410;-78
2023/05/10 08:31:40;;;;;;;2.80;2.70;;;24.50;51.80;;;;;;4971497;28;20451;-78
2023/05/10 08:34:10;;;;;;;3.80;3.50;;;24.50;51.80;;;;;;4977154;28;20417;-78
2023/05/10 08:36:38;;;;;;;3.30;3.10;;;24.50;51.80;;;;;;4978470;28;20445;-78
2023/05/10 08:39:06;;;;;;;3.10;2.90;;;24.50;51.90;;;;;;4969566;28;20930;-78
2023/05/10 08:41:46;;;;;;;2.83;2.70;;;24.60;51.90;;;;;;4969345;28;20432;-78
2023/05/10 08:44:14;;;;;;;3.17;2.87;;;24.60;51.80;;;;;;4980572;28;20478;-79
2023/05/10 08:46:43;;;;;;;3.00;2.80;;;24.60;51.80;;;;;;4978252;28;20464;-78
2023/05/10 08:49:14;;;;;;;2.63;2.53;;;24.60;51.80;;;;;;4973923;28;20513;-79
2023/05/10 08:51:47;;;;;;;3.00;2.80;;;24.70;51.70;;;;;;4981683;28;20431;-78
2023/05/10 08:54:25;;;;;;;2.80;2.70;;;24.70;51.60;;;;;;4977410;28;20573;-78
2023/05/10 08:56:53;;;;;;;2.97;2.87;;;24.70;51.70;;;;;;4980439;28;20464;-78
2023/05/10 08:59:21;;;;;;;3.10;2.90;;;24.70;51.60;;;;;;4981387;28;20453;-78
2023/05/10 09:01:49;;;;;;;3.27;3.07;;;24.60;51.70;;;;;;4969656;28;20428;-77
2023/05/10 09:04:19;;;;;;;3.30;3.10;;;24.60;51.80;;;;;;4968438;28;20549;-77
2023/05/10 09:06:47;;;;;;;3.40;3.00;;;24.60;51.80;;;;;;4963930;28;20514;-77
2023/05/10 09:09:15;;;;;;;2.93;2.83;;;24.60;51.80;;;;;;4969399;28;20424;-77
2023/05/10 09:11:44;;;;;;;2.90;2.70;;;24.60;51.80;;;;;;4975787;28;20428;-78
2023/05/10 09:14:12;;;;;;;2.67;2.57;;;24.50;51.80;;;;;;4961545;28;20451;-78
2023/05/10 09:16:41;;;;;;;3.23;3.03;;;24.50;51.90;;;;;;4972874;28;20429;-78
2023/05/10 09:19:09;;;;;;;3.17;2.97;;;24.50;52.30;;;;;;4968846;28;20455;-77
2023/05/10 09:21:40;;;;;;;2.73;2.57;;;24.50;51.90;;;;;;4964636;28;20421;-78
2023/05/10 09:24:08;;;;;;;2.70;2.53;;;24.40;51.90;;;;;;4971528;28;20480;-78
2023/05/10 09:26:40;;;;;;;2.90;2.70;;;24.40;52.00;;;;;;4969003;28;20428;-77
2023/05/10 09:29:08;;;;;;;3.57;2.50;;;24.40;52.00;;;;;;4965600;28;20449;-78
2023/05/10 09:31:47;;;;;;;2.60;2.50;;;24.50;51.80;;;;;;4967611;28;20489;-78
2023/05/10 09:34:19;;;;;;;3.00;2.80;;;24.60;52.10;;;;;;4980139;28;20453;-77
2023/05/10 09:36:56;;;;;;;2.53;2.43;;;24.50;51.80;;;;;;4982508;28;20531;-80
2023/05/10 09:39:34;;;;;;;2.83;2.53;;;24.50;51.90;;;;;;4980597;28;20446;-79
2023/05/10 09:42:04;;;;;;;2.97;2.77;;;24.50;52.00;;;;;;4976302;28;20540;-78
2023/05/10 09:44:32;;;;;;;2.67;2.57;;;24.40;52.00;;;;;;4982157;28;20478;-79
2023/05/10 09:47:00;;;;;;;3.03;2.83;;;24.50;52.10;;;;;;4980991;28;20450;-79
2023/05/10 09:49:29;;;;;;;4.63;2.47;;;24.60;52.20;;;;;;4981148;28;20425;-78
2023/05/10 09:52:05;;;;;;;3.10;2.90;;;24.60;52.00;;;;;;4972379;28;20432;-79
2023/05/10 09:54:34;;;;;;;2.40;2.30;;;24.70;52.00;;;;;;4977248;28;20444;-79
2023/05/10 09:57:02;;;;;;;2.90;2.80;;;24.80;51.90;;;;;;4977396;28;20429;-79
2023/05/10 09:59:30;;;;;;;2.50;2.40;;;24.90;51.80;;;;;;4972433;28;20461;-79
2023/05/10 10:02:00;;;;;;;2.40;2.30;;;25.00;52.00;;;;;;4975927;28;20533;-78
2023/05/10 10:04:33;;;;;;;2.83;2.63;;;25.20;51.60;;;;;;4978335;28;20528;-78
2023/05/10 10:07:12;;;;;;;2.87;2.67;;;25.60;51.20;;;;;;4967124;28;20454;-79
2023/05/10 10:09:40;;;;;;;2.70;2.60;;;26.00;50.80;;;;;;4977297;28;20450;-79
2023/05/10 10:12:31;;;;;;;2.50;2.40;;;26.20;50.20;;;;;;4972451;28;20474;-79
2023/05/10 10:18:11;;;;;;;2.67;2.47;;;26.00;49.80;;;;;;4968064;28;20453;-77
2023/05/10 10:20:39;;;;;;;2.30;2.20;;;26.00;50.20;;;;;;4974442;28;20424;-77
2023/05/10 10:23:09;;;;;;;2.50;2.40;;;25.90;50.10;;;;;;4966372;28;20467;-77
2023/05/10 10:25:37;;;;;;;2.87;2.67;;;25.80;50.30;;;;;;4974540;28;20474;-79
2023/05/10 10:28:16;;;;;;;2.50;2.10;;;25.90;50.50;;;;;;4970592;28;20530;-78
2023/05/10 10:30:46;;;;;;;2.27;2.17;;;25.90;50.40;;;;;;4974942;28;20484;-79
2023/05/10 10:33:31;;;;;;;2.23;2.13;;;25.90;50.30;;;;;;4975529;28;20496;-78
2023/05/10 10:36:26;;;;;;;2.23;2.13;;;25.90;50.40;;;;;;4976751;28;20546;-78
2023/05/10 10:39:03;;;;;;;2.10;2.00;;;26.00;50.40;;;;;;4963406;28;20426;-78
2023/05/10 10:41:33;;;;;;;1.80;1.70;;;25.90;50.20;;;;;;4965474;28;20424;-78
2023/05/10 10:44:24;;;;;;;2.10;2.00;;;25.90;50.30;;;;;;4971855;28;20536;-78
2023/05/10 10:47:08;;;;;;;2.10;2.00;;;25.80;50.40;;;;;;4967507;28;20522;-79
2023/05/10 10:49:43;;;;;;;2.10;2.00;;;25.80;50.60;;;;;;4978706;28;20459;-78
2023/05/10 10:52:15;;;;;;;2.07;2.00;;;25.90;50.60;;;;;;4978734;28;20469;-78
2023/05/10 10:55:08;;;;;;;2.20;2.00;;;26.00;50.50;;;;;;4971253;28;20442;-78
2023/05/10 10:57:44;;;;;;;2.10;2.00;;;26.10;50.50;;;;;;4971604;28;20408;-77
2023/05/10 11:00:27;;;;;;;1.97;1.97;;;26.00;50.00;;;;;;4973976;28;20428;-78
2023/05/10 11:02:57;;;;;;;2.17;1.90;;;25.90;50.30;;;;;;4970541;28;20565;-77
2023/05/10 11:05:34;;;;;;;1.97;1.87;;;26.00;50.50;;;;;;4972445;28;20448;-77
2023/05/10 11:08:10;;;;;;;2.50;1.90;;;26.10;50.70;;;;;;4963745;28;20431;-79
2023/05/10 11:10:39;;;;;;;1.93;1.83;;;26.30;50.60;;;;;;4971240;28;20453;-78
2023/05/10 11:13:08;;;;;;;2.10;2.00;;;26.60;50.00;;;;;;4972768;28;20560;-78
2023/05/10 11:15:38;;;;;;;1.83;1.73;;;26.70;49.80;;;;;;4970810;28;20455;-78
2023/05/10 11:18:18;;;;;;;2.00;1.90;;;26.80;49.40;;;;;;4970000;28;20454;-78
2023/05/10 11:20:51;;;;;;;2.00;1.90;;;26.80;49.40;;;;;;4958110;28;20416;-78
2023/05/10 11:23:20;;;;;;;2.10;2.00;;;26.80;49.20;;;;;;4968527;28;20445;-78
2023/05/10 11:25:50;;;;;;;2.00;1.90;;;26.80;49.30;;;;;;4965272;28;20448;-77
2023/05/10 11:28:19;;;;;;;2.00;1.90;;;26.70;49.10;;;;;;4962060;28;20429;-75
2023/05/10 11:30:47;;;;;;;1.90;1.83;;;26.60;49.30;;;;;;4973225;28;20421;-77
2023/05/10 11:33:19;;;;;;;1.50;1.50;;;26.50;49.70;;;;;;4980075;28;20474;-78
2023/05/10 11:35:47;;;;;;;1.93;1.83;;;26.40;49.80;;;;;;4978245;28;20428;-78
2023/05/10 11:38:16;;;;;;;2.00;1.90;;;26.30;49.90;;;;;;4980037;28;20488;-79
2023/05/10 11:40:44;;;;;;;2.20;2.10;;;26.20;50.10;;;;;;4977238;28;20456;-78
2023/05/10 11:43:16;;;;;;;2.27;2.07;;;26.10;50.00;;;;;;4977558;28;20466;-76
2023/05/10 11:45:44;;;;;;;2.17;2.07;;;26.00;50.40;;;;;;4974945;28;20479;-79
2023/05/10 11:48:13;;;;;;;2.20;2.10;;;26.00;50.40;;;;;;4967348;28;20451;-78
2023/05/10 11:50:41;;;;;;;2.30;2.20;;;26.00;50.50;;;;;;4977263;28;20461;-79
2023/05/10 11:53:09;;;;;;;2.13;2.03;;;25.90;50.40;;;;;;4971372;28;20441;-77
2023/05/10 11:55:37;;;;;;;2.10;2.00;;;25.90;50.60;;;;;;4964602;28;20417;-78
2023/05/10 11:58:06;;;;;;;2.27;2.17;;;26.00;50.60;;;;;;4978587;28;20435;-79
2023/05/10 12:00:36;;;;;;;2.40;2.30;;;26.00;50.60;;;;;;4971121;28;20451;-78
2023/05/10 12:03:04;;;;;;;3.00;2.43;;;25.90;50.50;;;;;;4978066;28;20464;-77
2023/05/10 12:05:34;;;;;;;2.60;2.50;;;25.90;50.60;;;;;;4978594;28;20478;-77
2023/05/10 12:08:14;;;;;;;2.10;2.00;;;25.90;50.60;;;;;;4966228;28;20434;-78
2023/05/10 12:10:42;;;;;;;2.60;2.50;;;25.80;50.60;;;;;;4974177;28;20447;-78
2023/05/10 12:13:15;;;;;;;2.60;2.50;;;25.90;50.70;;;;;;4967159;28;20481;-78
2023/05/10 12:15:45;;;;;;;2.40;2.30;;;25.90;50.60;;;;;;4969308;28;20430;-77
2023/05/10 12:18:15;;;;;;;2.53;2.43;;;25.80;50.60;;;;;;4974641;28;20425;-77
2023/05/10 12:20:47;;;;;;;3.00;2.90;;;25.80;50.60;;;;;;4978598;28;20508;-78
2023/05/10 12:23:15;;;;;;;3.10;2.90;;;25.80;50.80;;;;;;4970792;28;20558;-77
2023/05/10 12:25:43;;;;;;;2.90;2.70;;;25.80;50.80;;;;;;4975927;28;20477;-78
2023/05/10 12:28:12;;;;;;;2.70;2.60;;;25.80;50.60;;;;;;4979003;28;20460;-79
2023/05/10 12:30:40;;;;;;;2.60;2.50;;;25.70;50.70;;;;;;4973773;28;20512;-78
2023/05/10 12:33:10;;;;;;;2.53;2.43;;;25.70;50.80;;;;;;4974597;28;20483;-79
2023/05/10 12:35:46;;;;;;;2.67;2.57;;;25.70;50.90;;;;;;4977577;28;20420;-79
2023/05/10 12:38:29;;;;;;;3.10;2.93;;;25.80;51.00;;;;;;4973754;28;20462;-78
2023/05/10 12:40:57;;;;;;;2.83;2.73;;;25.80;50.70;;;;;;4979473;28;20425;-78
2023/05/10 12:43:25;;;;;;;2.80;2.70;;;25.80;50.60;;;;;;4972476;28;20455;-78
2023/05/10 12:45:57;;;;;;;3.07;2.97;;;25.90;50.60;;;;;;4973911;28;20512;-79
2023/05/10 12:48:28;;;;;;;3.40;3.20;;;25.90;50.60;;;;;;4972727;28;20453;-78
2023/05/10 12:50:57;;;;;;;3.47;3.27;;;25.90;50.70;;;;;;4976004;28;20432;-78
2023/05/10 12:53:45;;;;;;;3.30;3.10;;;25.90;50.60;;;;;;4970016;28;20444;-78
2023/05/10 12:56:16;;;;;;;3.17;2.97;;;26.00;50.60;;;;;;4977317;28;20519;-78
2023/05/10 12:58:47;;;;;;;2.77;2.67;;;25.90;50.30;;;;;;4981347;28;20476;-78
2023/05/10 13:01:16;;;;;;;3.43;3.23;;;25.90;50.60;;;;;;4982043;28;20457;-79
2023/05/10 13:03:45;;;;;;;3.00;2.80;;;25.90;50.60;;;;;;4981243;28;20496;-78